Time;durP1;ratioP1;P1;durP2;ratioP2;P2;SDS_P1;SDS_P2;PMS_P1;PMS_P2;Temp;Humidity;BMP_temperature;BMP_pressure;BME280_temperature;BME280_humidity;BME280_pressure;Samples;Min_cycle;Max_cycle;Signal;HPM_P1;HPM_P2
2023/12/12 00:00:30;;;;;;;0.30;0.30;;;7.70;99.90;;;;;;4427379;32;20565;-61
2023/12/12 00:02:57;;;;;;;0.30;0.30;;;7.80;99.90;;;;;;4429932;32;20085;-61
2023/12/12 00:05:22;;;;;;;0.30;0.30;;;7.80;99.90;;;;;;4428639;32;20532;-61
2023/12/12 00:07:48;;;;;;;0.30;0.30;;;7.80;99.90;;;;;;4427027;32;20070;-61
2023/12/12 00:10:13;;;;;;;0.20;0.20;;;7.80;99.90;;;;;;4428009;32;20090;-61
2023/12/12 00:12:39;;;;;;;0.30;0.30;;;7.80;99.90;;;;;;4428739;32;20058;-61
2023/12/12 00:15:05;;;;;;;0.20;0.20;;;7.80;99.90;;;;;;4429289;32;20485;-61
2023/12/12 00:17:31;;;;;;;0.32;0.32;;;7.80;99.90;;;;;;4416394;32;20069;-60
2023/12/12 00:19:56;;;;;;;2.25;1.15;;;7.70;99.90;;;;;;4429201;32;21217;-61
2023/12/12 00:22:22;;;;;;;0.25;0.25;;;7.70;99.90;;;;;;4416408;32;20069;-60
2023/12/12 00:24:48;;;;;;;0.20;0.20;;;7.70;99.90;;;;;;4430091;32;20152;-60
2023/12/12 00:27:14;;;;;;;0.30;0.30;;;7.70;99.90;;;;;;4429955;32;20073;-59
2023/12/12 00:29:40;;;;;;;0.30;0.30;;;7.70;99.90;;;;;;4408122;32;20094;-60
2023/12/12 00:32:06;;;;;;;0.45;0.37;;;7.70;99.90;;;;;;4421672;32;20070;-62
2023/12/12 00:34:34;;;;;;;0.30;0.30;;;7.70;99.90;;;;;;4424253;32;20085;-61
2023/12/12 00:37:00;;;;;;;0.30;0.30;;;7.70;99.90;;;;;;4425733;32;20450;-61
2023/12/12 00:39:26;;;;;;;0.40;0.40;;;7.70;99.90;;;;;;4425972;32;20069;-61
2023/12/12 00:41:52;;;;;;;0.20;0.20;;;7.70;99.90;;;;;;4412844;32;20120;-61
2023/12/12 00:44:17;;;;;;;0.30;0.30;;;7.70;99.90;;;;;;4430055;32;20124;-60
2023/12/12 00:46:43;;;;;;;0.30;0.30;;;7.60;99.90;;;;;;4429628;32;20121;-62
2023/12/12 00:49:08;;;;;;;0.40;0.40;;;7.70;99.90;;;;;;4426041;32;20084;-58
2023/12/12 00:51:34;;;;;;;0.30;0.30;;;7.60;99.90;;;;;;4426998;32;20097;-60
2023/12/12 00:53:59;;;;;;;0.62;0.40;;;7.70;99.90;;;;;;4430757;32;20069;-60
2023/12/12 00:56:25;;;;;;;0.20;0.20;;;7.80;99.90;;;;;;4428764;32;20116;-60
2023/12/12 00:58:50;;;;;;;0.52;0.50;;;7.70;99.90;;;;;;4429402;32;20102;-61
2023/12/12 01:01:16;;;;;;;0.30;0.30;;;7.70;99.90;;;;;;4429033;32;20549;-61
2023/12/12 01:03:41;;;;;;;0.30;0.30;;;7.70;99.90;;;;;;4428637;32;20562;-60
2023/12/12 01:06:08;;;;;;;0.20;0.20;;;7.70;99.90;;;;;;4416550;32;20116;-60
2023/12/12 01:08:34;;;;;;;0.20;0.20;;;7.70;99.90;;;;;;4388272;32;20062;-60
2023/12/12 01:10:59;;;;;;;0.40;0.40;;;7.70;99.90;;;;;;4427555;32;20123;-61
2023/12/12 01:13:25;;;;;;;0.43;0.43;;;7.70;99.90;;;;;;4430897;32;20135;-60
2023/12/12 01:15:50;;;;;;;3.37;0.77;;;7.80;99.90;;;;;;4429221;32;20082;-60
2023/12/12 01:18:16;;;;;;;0.30;0.30;;;7.80;99.90;;;;;;4430769;32;20125;-60
2023/12/12 01:20:41;;;;;;;0.30;0.30;;;7.80;99.90;;;;;;4416010;32;20065;-61
2023/12/12 01:23:07;;;;;;;0.30;0.30;;;7.80;99.90;;;;;;4430302;32;20512;-62
2023/12/12 01:25:32;;;;;;;0.40;0.40;;;7.80;99.90;;;;;;4431916;32;20074;-62
2023/12/12 01:27:57;;;;;;;0.30;0.30;;;7.70;99.90;;;;;;4428840;32;20061;-60
2023/12/12 01:30:23;;;;;;;0.30;0.30;;;7.70;99.90;;;;;;4429963;32;20108;-60
2023/12/12 01:32:48;;;;;;;0.30;0.30;;;7.80;99.90;;;;;;4429889;32;20060;-62
2023/12/12 01:35:14;;;;;;;0.73;0.50;;;7.80;99.90;;;;;;4429714;32;20078;-61
2023/12/12 01:37:40;;;;;;;0.30;0.30;;;7.80;99.90;;;;;;4417661;32;20104;-62
2023/12/12 01:40:07;;;;;;;0.20;0.20;;;7.70;99.90;;;;;;4435683;32;20473;-62
2023/12/12 01:42:32;;;;;;;0.30;0.30;;;7.70;99.90;;;;;;4430195;32;20119;-62
2023/12/12 01:44:58;;;;;;;0.20;0.20;;;7.70;99.90;;;;;;4428958;32;20074;-62
2023/12/12 01:47:23;;;;;;;0.30;0.30;;;7.70;99.90;;;;;;4430319;32;20081;-62
2023/12/12 01:49:50;;;;;;;0.30;0.30;;;7.70;99.90;;;;;;4428706;32;20077;-62
2023/12/12 01:52:15;;;;;;;0.20;0.20;;;7.60;99.90;;;;;;4429918;32;20615;-61
2023/12/12 01:54:46;;;;;;;0.30;0.30;;;7.60;99.90;;;;;;4429566;32;20108;-61
2023/12/12 01:57:13;;;;;;;0.20;0.20;;;7.60;99.90;;;;;;4429434;32;20425;-62
2023/12/12 01:59:39;;;;;;;0.68;0.68;;;7.60;99.90;;;;;;4415260;32;20073;-63
2023/12/12 02:02:06;;;;;;;0.20;0.20;;;7.60;99.90;;;;;;4427801;32;20101;-63
2023/12/12 02:04:31;;;;;;;0.30;0.30;;;7.50;99.90;;;;;;4417643;32;20057;-62
2023/12/12 02:06:59;;;;;;;0.52;0.52;;;7.60;99.90;;;;;;4432148;32;20092;-63
2023/12/12 02:09:26;;;;;;;0.30;0.30;;;7.60;99.90;;;;;;4428932;32;20136;-63
2023/12/12 02:11:52;;;;;;;0.30;0.30;;;7.50;99.90;;;;;;4430633;32;20559;-63
2023/12/12 02:14:17;;;;;;;0.30;0.30;;;7.50;99.90;;;;;;4413472;32;20084;-63
2023/12/12 02:16:43;;;;;;;0.40;0.40;;;7.50;99.90;;;;;;4430974;32;20132;-63
2023/12/12 02:19:08;;;;;;;1.17;0.82;;;7.50;99.90;;;;;;4429588;32;20075;-63
2023/12/12 02:21:34;;;;;;;0.40;0.40;;;7.50;99.90;;;;;;4427753;32;20127;-61
2023/12/12 02:23:59;;;;;;;0.20;0.20;;;7.50;99.90;;;;;;4429795;32;20073;-60
2023/12/12 02:26:25;;;;;;;0.40;0.40;;;7.50;99.90;;;;;;4428821;32;20142;-61
2023/12/12 02:28:50;;;;;;;0.30;0.30;;;7.40;99.90;;;;;;4428364;32;20072;-62
2023/12/12 02:31:17;;;;;;;1.25;0.60;;;7.50;99.90;;;;;;4428820;32;20465;-61
2023/12/12 02:33:42;;;;;;;0.30;0.30;;;7.50;99.90;;;;;;4429700;32;20760;-61
2023/12/12 02:36:08;;;;;;;0.25;0.25;;;7.50;99.90;;;;;;4431979;32;20393;-62
2023/12/12 02:38:33;;;;;;;0.35;0.35;;;7.50;99.90;;;;;;4429836;32;20579;-61
2023/12/12 02:40:59;;;;;;;0.37;0.37;;;7.50;99.90;;;;;;4429617;32;20518;-61
2023/12/12 02:43:24;;;;;;;0.77;0.60;;;7.50;99.90;;;;;;4428432;32;20068;-62
2023/12/12 02:45:49;;;;;;;0.30;0.30;;;7.50;99.90;;;;;;4427683;32;20077;-62
2023/12/12 02:48:16;;;;;;;0.22;0.22;;;7.50;99.90;;;;;;4431273;32;20069;-62
2023/12/12 02:50:41;;;;;;;0.20;0.20;;;7.50;99.90;;;;;;4412991;32;20081;-63
2023/12/12 02:53:07;;;;;;;0.30;0.30;;;7.50;99.90;;;;;;4429691;32;20169;-63
2023/12/12 02:55:32;;;;;;;0.20;0.20;;;7.40;99.90;;;;;;4430816;32;20134;-61
2023/12/12 02:57:58;;;;;;;0.30;0.30;;;7.50;99.90;;;;;;4426386;32;20069;-62
2023/12/12 03:00:23;;;;;;;0.37;0.37;;;7.40;99.90;;;;;;4428064;32;20066;-62
2023/12/12 03:02:49;;;;;;;0.30;0.30;;;7.40;99.90;;;;;;4428524;32;20089;-62
2023/12/12 03:05:14;;;;;;;0.30;0.30;;;7.40;99.90;;;;;;4428127;32;20311;-62
2023/12/12 03:07:39;;;;;;;0.25;0.25;;;7.40;99.90;;;;;;4433474;32;20438;-62
2023/12/12 03:10:06;;;;;;;0.40;0.40;;;7.40;99.90;;;;;;4432341;32;20085;-62
2023/12/12 03:12:32;;;;;;;0.20;0.20;;;7.40;99.90;;;;;;4415197;32;20136;-61
2023/12/12 03:14:57;;;;;;;0.40;0.40;;;7.40;99.90;;;;;;4431036;32;20593;-62
2023/12/12 03:17:23;;;;;;;0.30;0.30;;;7.30;99.90;;;;;;4427082;32;20431;-60
2023/12/12 03:19:48;;;;;;;0.40;0.40;;;7.40;99.90;;;;;;4431108;32;20094;-61
2023/12/12 03:22:13;;;;;;;0.40;0.40;;;7.40;99.90;;;;;;4427814;32;20077;-61
2023/12/12 03:24:39;;;;;;;0.25;0.25;;;7.40;99.90;;;;;;4430100;32;20078;-60
2023/12/12 03:27:06;;;;;;;0.40;0.40;;;7.40;99.90;;;;;;4425436;32;20084;-61
2023/12/12 03:29:31;;;;;;;0.70;0.40;;;7.40;99.90;;;;;;4427208;32;20094;-60
2023/12/12 03:31:57;;;;;;;0.32;0.32;;;7.40;99.90;;;;;;4411485;32;20057;-61
2023/12/12 03:34:22;;;;;;;0.50;0.50;;;7.40;99.90;;;;;;4426354;32;20077;-62
2023/12/12 03:36:48;;;;;;;0.20;0.20;;;7.30;99.90;;;;;;4429208;32;20061;-62
2023/12/12 03:39:14;;;;;;;0.40;0.32;;;7.30;99.90;;;;;;4428362;32;20151;-62
2023/12/12 03:41:41;;;;;;;0.30;0.30;;;7.30;99.90;;;;;;4425748;32;20121;-61
2023/12/12 03:44:06;;;;;;;0.30;0.30;;;7.30;99.90;;;;;;4428160;32;20081;-60
2023/12/12 03:46:32;;;;;;;0.50;0.50;;;7.20;99.90;;;;;;4428779;32;20081;-62
2023/12/12 03:48:57;;;;;;;0.30;0.30;;;7.20;99.90;;;;;;4427924;32;20517;-61
2023/12/12 03:51:23;;;;;;;0.30;0.30;;;7.20;99.90;;;;;;4432143;32;20083;-60
2023/12/12 03:53:48;;;;;;;0.98;0.85;;;7.20;99.90;;;;;;4437805;32;20080;-61
2023/12/12 03:56:14;;;;;;;0.22;0.22;;;7.20;99.90;;;;;;4421342;32;20507;-60
2023/12/12 03:58:39;;;;;;;0.20;0.20;;;7.30;99.90;;;;;;4438419;32;20450;-60
2023/12/12 04:01:06;;;;;;;0.30;0.30;;;7.20;99.90;;;;;;4438495;32;20088;-61
2023/12/12 04:03:32;;;;;;;0.30;0.30;;;7.20;99.90;;;;;;4430102;32;20073;-61
2023/12/12 04:06:00;;;;;;;0.30;0.30;;;7.20;99.90;;;;;;4417213;32;20722;-60
2023/12/12 04:08:26;;;;;;;0.30;0.30;;;7.20;99.90;;;;;;4437471;32;20077;-62
2023/12/12 04:10:52;;;;;;;0.20;0.20;;;7.10;99.90;;;;;;4432098;32;20461;-62
2023/12/12 04:13:17;;;;;;;0.50;0.50;;;7.20;99.90;;;;;;4437381;32;20076;-61
2023/12/12 04:15:42;;;;;;;0.20;0.20;;;7.20;99.90;;;;;;4435462;32;20652;-62
2023/12/12 04:18:08;;;;;;;0.30;0.30;;;7.10;99.90;;;;;;4435128;32;20072;-60
2023/12/12 04:20:33;;;;;;;0.40;0.40;;;7.10;99.90;;;;;;4433444;32;20057;-60
2023/12/12 04:22:59;;;;;;;0.35;0.32;;;7.10;99.90;;;;;;4437744;32;20085;-62
2023/12/12 04:25:24;;;;;;;0.28;0.28;;;7.10;99.90;;;;;;4440294;32;20513;-60
2023/12/12 04:27:50;;;;;;;1.05;0.57;;;7.20;99.90;;;;;;4440631;32;20089;-61
2023/12/12 04:30:15;;;;;;;0.20;0.20;;;7.20;99.90;;;;;;4435761;32;20056;-61
2023/12/12 04:32:42;;;;;;;0.30;0.30;;;7.20;99.90;;;;;;4435675;32;20140;-60
2023/12/12 04:35:09;;;;;;;0.30;0.30;;;7.20;99.90;;;;;;4439986;32;20480;-61
2023/12/12 04:37:34;;;;;;;0.45;0.45;;;7.20;99.90;;;;;;4435867;32;20512;-63
2023/12/12 04:40:00;;;;;;;0.25;0.25;;;7.30;99.90;;;;;;4440454;32;20089;-61
2023/12/12 04:42:25;;;;;;;0.50;0.50;;;7.20;99.90;;;;;;4419284;32;20076;-59
2023/12/12 04:44:51;;;;;;;15.07;0.98;;;7.20;99.90;;;;;;4435172;32;20092;-60
2023/12/12 04:47:16;;;;;;;1.65;1.17;;;7.20;99.90;;;;;;4417013;32;20089;-59
2023/12/12 04:49:42;;;;;;;0.25;0.25;;;7.20;99.90;;;;;;4443214;32;20071;-61
2023/12/12 04:52:07;;;;;;;0.20;0.20;;;7.20;99.90;;;;;;4421004;32;20164;-61
2023/12/12 04:54:33;;;;;;;0.32;0.32;;;7.20;99.90;;;;;;4435721;32;20061;-61
2023/12/12 04:56:59;;;;;;;1.75;0.95;;;7.20;99.90;;;;;;4439330;32;20542;-60
2023/12/12 04:59:25;;;;;;;0.90;0.50;;;7.20;99.90;;;;;;4436196;32;20159;-59
2023/12/12 05:01:50;;;;;;;0.90;0.52;;;7.10;99.90;;;;;;4437977;32;20076;-60
2023/12/12 05:04:16;;;;;;;0.30;0.30;;;7.20;99.90;;;;;;4444231;32;20073;-63
2023/12/12 05:06:41;;;;;;;0.20;0.20;;;7.20;99.90;;;;;;4440917;32;20731;-62
2023/12/12 05:09:07;;;;;;;0.30;0.30;;;7.20;99.90;;;;;;4437871;32;20115;-62
2023/12/12 05:11:33;;;;;;;0.20;0.20;;;7.20;99.90;;;;;;4439414;32;20520;-62
2023/12/12 05:13:59;;;;;;;0.95;0.62;;;7.20;99.90;;;;;;4438323;32;20128;-62
2023/12/12 05:16:24;;;;;;;0.40;0.40;;;7.10;99.90;;;;;;4438956;32;20132;-62
2023/12/12 05:18:50;;;;;;;0.37;0.37;;;7.20;99.90;;;;;;4436182;32;20817;-62
2023/12/12 05:21:17;;;;;;;0.35;0.35;;;7.20;99.90;;;;;;4435297;32;20556;-61
2023/12/12 05:23:42;;;;;;;0.32;0.32;;;7.10;99.90;;;;;;4435686;32;20529;-62
2023/12/12 05:26:08;;;;;;;1.65;0.95;;;7.20;99.90;;;;;;4439353;32;20149;-63
2023/12/12 05:28:33;;;;;;;0.30;0.30;;;7.20;99.90;;;;;;4434866;32;20085;-62
2023/12/12 05:30:59;;;;;;;0.30;0.30;;;7.20;99.90;;;;;;4438052;32;20102;-61
2023/12/12 05:33:24;;;;;;;0.30;0.30;;;7.10;99.90;;;;;;4426203;32;20066;-62
2023/12/12 05:35:50;;;;;;;0.30;0.30;;;7.10;99.90;;;;;;4420368;32;20101;-60
2023/12/12 05:38:16;;;;;;;0.37;0.37;;;7.10;99.90;;;;;;4439179;32;20086;-60
2023/12/12 05:40:41;;;;;;;0.28;0.28;;;7.10;99.90;;;;;;4440469;32;20069;-61
2023/12/12 05:43:06;;;;;;;0.20;0.20;;;7.10;99.90;;;;;;4434791;32;20090;-62
2023/12/12 05:45:32;;;;;;;0.40;0.40;;;7.10;99.90;;;;;;4438752;32;20468;-62
2023/12/12 05:47:58;;;;;;;0.32;0.32;;;7.10;99.90;;;;;;4438626;32;20072;-62
2023/12/12 05:50:24;;;;;;;1.35;1.20;;;7.00;99.90;;;;;;4417057;32;20643;-62
2023/12/12 05:52:50;;;;;;;0.30;0.30;;;7.00;99.90;;;;;;4414436;32;20057;-62
2023/12/12 05:55:16;;;;;;;0.30;0.30;;;7.10;99.90;;;;;;4431546;32;20076;-61
2023/12/12 05:57:41;;;;;;;0.30;0.30;;;7.00;99.90;;;;;;4414527;32;20089;-61
2023/12/12 06:02:34;;;;;;;0.40;0.40;;;7.00;99.90;;;;;;4428661;32;20616;-63
2023/12/12 06:05:00;;;;;;;0.40;0.40;;;7.00;99.90;;;;;;4428819;32;20069;-61
2023/12/12 06:07:25;;;;;;;0.85;0.73;;;7.00;99.90;;;;;;4417776;32;20570;-60
2023/12/12 06:09:51;;;;;;;0.30;0.30;;;7.00;99.90;;;;;;4430331;32;20112;-63
2023/12/12 06:12:17;;;;;;;0.30;0.30;;;7.00;99.90;;;;;;4428043;32;20203;-62
2023/12/12 06:14:44;;;;;;;1.67;0.68;;;7.00;99.90;;;;;;4402580;32;20082;-62
2023/12/12 06:17:11;;;;;;;0.65;0.65;;;7.00;99.90;;;;;;4413899;32;20058;-61
2023/12/12 06:19:37;;;;;;;0.55;0.55;;;7.00;99.90;;;;;;4427483;32;20180;-62
2023/12/12 06:22:03;;;;;;;0.20;0.20;;;7.00;99.90;;;;;;4415188;32;20457;-61
2023/12/12 06:24:28;;;;;;;2.33;0.52;;;7.00;99.90;;;;;;4425064;32;20461;-61
2023/12/12 06:26:54;;;;;;;0.65;0.43;;;7.00;99.90;;;;;;4411514;32;20065;-62
2023/12/12 06:29:19;;;;;;;0.50;0.50;;;7.00;99.90;;;;;;4419807;32;21207;-59
2023/12/12 06:31:45;;;;;;;0.25;0.25;;;7.00;99.90;;;;;;4408447;32;20147;-60
2023/12/12 06:34:10;;;;;;;0.30;0.30;;;7.00;99.90;;;;;;4419988;32;20077;-63
2023/12/12 06:36:37;;;;;;;0.37;0.37;;;7.00;99.90;;;;;;4425019;32;20149;-63
2023/12/12 06:39:03;;;;;;;0.25;0.25;;;6.90;99.90;;;;;;4422079;32;20183;-63
2023/12/12 06:41:28;;;;;;;0.20;0.20;;;6.90;99.90;;;;;;4418606;32;20070;-61
2023/12/12 06:43:54;;;;;;;5.47;1.33;;;6.90;99.90;;;;;;4419152;32;20085;-62
2023/12/12 06:46:19;;;;;;;0.50;0.50;;;7.00;99.90;;;;;;4404441;32;20102;-63
2023/12/12 06:48:45;;;;;;;0.30;0.30;;;6.90;99.90;;;;;;4401305;32;20140;-62
2023/12/12 06:51:10;;;;;;;0.40;0.40;;;6.90;99.90;;;;;;4420095;32;20101;-62
2023/12/12 06:53:36;;;;;;;0.30;0.30;;;6.90;99.90;;;;;;4404633;32;20093;-61
2023/12/12 06:56:02;;;;;;;0.50;0.50;;;6.80;99.90;;;;;;4399112;32;20081;-61
2023/12/12 06:58:28;;;;;;;2.30;0.90;;;6.80;99.90;;;;;;4384518;32;20113;-61
2023/12/12 07:00:54;;;;;;;0.30;0.30;;;6.90;99.90;;;;;;4391749;32;20529;-61
2023/12/12 07:03:21;;;;;;;0.40;0.40;;;6.80;99.90;;;;;;4400953;32;20277;-60
2023/12/12 07:05:50;;;;;;;1.40;1.27;;;6.90;99.90;;;;;;4381654;32;20095;-63
2023/12/12 07:08:17;;;;;;;0.40;0.40;;;6.90;99.90;;;;;;4383774;32;20088;-60
2023/12/12 07:10:42;;;;;;;6.25;1.67;;;6.90;99.90;;;;;;4401589;32;20112;-61
2023/12/12 07:13:08;;;;;;;2.60;1.10;;;6.90;99.90;;;;;;4402969;32;20077;-61
2023/12/12 07:15:33;;;;;;;0.30;0.30;;;6.90;99.90;;;;;;4391396;32;20674;-62
2023/12/12 07:17:59;;;;;;;0.30;0.30;;;6.90;99.90;;;;;;4395073;32;20093;-60
2023/12/12 07:20:24;;;;;;;0.70;0.70;;;6.90;99.90;;;;;;4402796;32;20094;-61
2023/12/12 07:22:50;;;;;;;0.35;0.35;;;6.90;99.90;;;;;;4402889;32;20435;-62
2023/12/12 07:25:15;;;;;;;1.10;0.90;;;7.00;99.90;;;;;;4392893;32;20583;-62
2023/12/12 07:27:41;;;;;;;0.43;0.43;;;7.00;99.90;;;;;;4398207;32;20085;-62
2023/12/12 07:30:07;;;;;;;0.22;0.22;;;6.90;99.90;;;;;;4398166;32;20626;-62
2023/12/12 07:32:32;;;;;;;0.28;0.28;;;6.90;99.90;;;;;;4402404;32;20761;-62
2023/12/12 07:34:58;;;;;;;0.20;0.20;;;6.90;99.90;;;;;;4398643;32;20943;-62
2023/12/12 07:37:23;;;;;;;0.75;0.52;;;6.90;99.90;;;;;;4399024;32;20855;-62
2023/12/12 07:39:49;;;;;;;0.40;0.40;;;6.90;99.90;;;;;;4405933;32;20184;-62
2023/12/12 07:42:15;;;;;;;0.40;0.40;;;7.00;99.90;;;;;;4399584;32;21495;-65
2023/12/12 07:44:40;;;;;;;0.57;0.57;;;6.90;99.90;;;;;;4398694;32;20097;-63
2023/12/12 07:47:07;;;;;;;0.30;0.30;;;6.90;99.90;;;;;;4402365;32;20168;-61
2023/12/12 07:49:33;;;;;;;0.30;0.30;;;7.00;99.90;;;;;;4392052;32;20089;-62
2023/12/12 07:51:59;;;;;;;0.30;0.30;;;6.90;99.90;;;;;;4400489;32;20691;-64
2023/12/12 07:54:25;;;;;;;2.83;0.93;;;6.90;99.90;;;;;;4398915;32;20602;-63
2023/12/12 07:56:50;;;;;;;0.30;0.30;;;6.90;99.90;;;;;;4397316;32;20100;-62
2023/12/12 07:59:17;;;;;;;2.60;1.33;;;6.90;99.90;;;;;;4408656;32;20119;-61
2023/12/12 08:04:08;;;;;;;0.40;0.40;;;6.90;99.90;;;;;;4402902;32;20066;-63
2023/12/12 08:06:33;;;;;;;3.28;1.90;;;7.00;99.90;;;;;;4392068;32;21882;-63
2023/12/12 08:08:59;;;;;;;0.30;0.30;;;7.00;99.90;;;;;;4393822;32;20082;-64
2023/12/12 08:11:27;;;;;;;0.37;0.37;;;7.00;99.90;;;;;;4403543;32;20640;-63
2023/12/12 08:13:53;;;;;;;0.50;0.50;;;7.00;99.90;;;;;;4386259;32;20104;-64
2023/12/12 08:16:19;;;;;;;0.30;0.30;;;6.90;99.90;;;;;;4396846;32;20081;-61
2023/12/12 08:18:44;;;;;;;0.93;0.88;;;6.90;99.90;;;;;;4400870;32;21044;-63
2023/12/12 08:21:10;;;;;;;0.40;0.40;;;6.90;99.90;;;;;;4403299;32;20104;-61
2023/12/12 08:23:37;;;;;;;4.55;0.82;;;6.80;99.90;;;;;;4403194;32;20131;-63
2023/12/12 08:26:03;;;;;;;0.40;0.40;;;6.90;99.90;;;;;;4403416;32;20089;-61
2023/12/12 08:28:29;;;;;;;0.65;0.65;;;6.80;99.90;;;;;;4400921;32;20085;-62
2023/12/12 08:30:54;;;;;;;15.93;0.73;;;6.80;99.90;;;;;;4386763;32;20073;-64
2023/12/12 08:33:20;;;;;;;0.70;0.70;;;6.80;99.90;;;;;;4408793;32;20065;-63
2023/12/12 08:35:46;;;;;;;1.00;0.45;;;6.80;99.90;;;;;;4417857;32;20084;-61
2023/12/12 08:38:12;;;;;;;0.47;0.40;;;6.80;99.90;;;;;;4421298;32;20102;-62
2023/12/12 08:40:37;;;;;;;10.45;2.55;;;6.80;99.90;;;;;;4418807;32;20093;-63
2023/12/12 08:43:03;;;;;;;0.50;0.50;;;6.90;99.90;;;;;;4424168;32;20143;-62
2023/12/12 08:45:29;;;;;;;0.50;0.50;;;6.80;99.90;;;;;;4426387;32;20066;-63
2023/12/12 08:47:54;;;;;;;0.20;0.20;;;6.90;99.90;;;;;;4411768;32;20209;-63
2023/12/12 08:50:20;;;;;;;0.80;0.80;;;6.90;99.90;;;;;;4422644;32;20077;-63
2023/12/12 08:52:47;;;;;;;0.35;0.35;;;6.90;99.90;;;;;;4399221;32;20132;-63
2023/12/12 08:55:13;;;;;;;1.20;0.98;;;6.90;99.90;;;;;;4410791;32;20088;-62
2023/12/12 08:57:39;;;;;;;4.37;1.15;;;6.90;99.90;;;;;;4429028;32;20187;-62
2023/12/12 09:02:36;;;;;;;0.40;0.40;;;6.90;99.90;;;;;;4423486;32;20213;-63
2023/12/12 09:05:03;;;;;;;0.40;0.40;;;6.90;99.90;;;;;;4427566;32;20068;-63
2023/12/12 09:07:29;;;;;;;0.85;0.82;;;6.80;99.90;;;;;;4425330;32;20102;-63
2023/12/12 09:09:55;;;;;;;0.40;0.40;;;6.80;99.90;;;;;;4419055;32;20468;-63
2023/12/12 09:12:21;;;;;;;0.30;0.30;;;6.80;99.90;;;;;;4411655;32;20124;-63
2023/12/12 09:14:46;;;;;;;0.30;0.30;;;6.90;99.90;;;;;;4422296;32;20985;-61
2023/12/12 09:17:12;;;;;;;3.60;1.10;;;6.90;99.90;;;;;;4426545;32;20231;-62
2023/12/12 09:19:37;;;;;;;0.40;0.40;;;6.90;99.90;;;;;;4424920;32;20102;-63
2023/12/12 09:22:03;;;;;;;0.35;0.35;;;6.90;99.90;;;;;;4427350;32;20147;-62
2023/12/12 09:24:28;;;;;;;2.33;0.95;;;6.90;99.90;;;;;;4427916;32;20106;-61
2023/12/12 09:26:55;;;;;;;0.25;0.25;;;7.00;99.90;;;;;;4428056;32;20076;-61
2023/12/12 09:29:20;;;;;;;0.30;0.30;;;6.90;99.90;;;;;;4427988;32;20721;-62
2023/12/12 09:31:46;;;;;;;0.50;0.50;;;7.00;99.90;;;;;;4410434;32;20081;-63
2023/12/12 09:34:12;;;;;;;0.88;0.80;;;6.90;99.90;;;;;;4423463;32;20097;-63
2023/12/12 09:36:38;;;;;;;1.25;1.05;;;6.90;99.90;;;;;;4400423;32;20073;-63
2023/12/12 09:39:07;;;;;;;0.40;0.40;;;6.90;99.90;;;;;;4403321;32;20089;-63
2023/12/12 09:41:32;;;;;;;0.50;0.50;;;6.90;99.90;;;;;;4407828;32;20788;-62
2023/12/12 09:44:01;;;;;;;2.47;1.20;;;6.90;99.90;;;;;;4408218;32;20732;-63
2023/12/12 09:46:28;;;;;;;1.40;1.10;;;6.90;99.90;;;;;;4389849;32;20089;-64
2023/12/12 09:48:55;;;;;;;0.60;0.60;;;6.90;99.90;;;;;;4417966;32;20093;-62
2023/12/12 09:51:22;;;;;;;0.37;0.37;;;6.80;99.90;;;;;;4393796;32;20336;-63
2023/12/12 09:53:49;;;;;;;0.57;0.57;;;6.80;99.90;;;;;;4392883;32;20096;-62
2023/12/12 09:56:16;;;;;;;0.52;0.47;;;6.90;99.90;;;;;;4405640;32;20077;-61
2023/12/12 09:58:45;;;;;;;1.67;0.77;;;6.80;99.90;;;;;;4396159;32;20089;-62
2023/12/12 10:01:11;;;;;;;1.55;0.50;;;6.80;99.90;;;;;;4389752;32;20097;-63
2023/12/12 10:03:38;;;;;;;0.57;0.57;;;6.80;99.90;;;;;;4408000;32;20109;-61
2023/12/12 10:06:08;;;;;;;0.20;0.20;;;6.80;99.90;;;;;;4404935;32;20089;-62
2023/12/12 10:08:35;;;;;;;0.37;0.37;;;6.80;99.90;;;;;;4400634;32;20086;-61
2023/12/12 10:11:01;;;;;;;0.40;0.40;;;6.80;99.90;;;;;;4388912;32;20077;-62
2023/12/12 10:13:27;;;;;;;0.37;0.37;;;6.80;99.90;;;;;;4404622;32;20118;-64
2023/12/12 10:15:53;;;;;;;0.40;0.40;;;6.80;99.90;;;;;;4394996;32;20077;-63
2023/12/12 10:18:22;;;;;;;0.40;0.40;;;6.90;99.90;;;;;;4391605;32;20176;-63
2023/12/12 10:20:48;;;;;;;1.12;1.02;;;6.90;99.90;;;;;;4404372;32;20085;-63
2023/12/12 10:23:13;;;;;;;0.30;0.30;;;7.00;99.90;;;;;;4371192;32;20618;-63
2023/12/12 10:25:49;;;;;;;3.40;1.02;;;7.10;99.90;;;;;;4406938;32;20123;-63
2023/12/12 10:28:15;;;;;;;4.07;1.75;;;7.10;99.90;;;;;;4399380;32;20172;-64
2023/12/12 10:30:42;;;;;;;0.40;0.40;;;7.20;99.90;;;;;;4402840;32;20498;-63
2023/12/12 10:33:14;;;;;;;0.30;0.30;;;7.20;99.90;;;;;;4370650;32;20194;-64
2023/12/12 10:35:44;;;;;;;0.20;0.20;;;7.30;99.90;;;;;;4401923;32;20555;-63
2023/12/12 10:38:10;;;;;;;3.90;0.77;;;7.30;99.90;;;;;;4395098;32;20406;-64
2023/12/12 10:40:35;;;;;;;0.40;0.40;;;7.30;99.90;;;;;;4396630;32;20155;-63
2023/12/12 10:43:02;;;;;;;0.40;0.40;;;7.30;99.90;;;;;;4415340;32;20466;-64
2023/12/12 10:45:29;;;;;;;0.73;0.73;;;7.30;99.90;;;;;;4403677;32;20458;-63
2023/12/12 10:47:59;;;;;;;1.08;0.52;;;7.40;99.90;;;;;;4395475;32;20086;-64
2023/12/12 10:50:29;;;;;;;3.85;1.40;;;7.50;99.90;;;;;;4408396;32;20504;-65
2023/12/12 10:52:57;;;;;;;0.80;0.80;;;7.70;99.90;;;;;;4399665;32;20077;-64
2023/12/12 10:55:23;;;;;;;0.40;0.40;;;7.90;99.90;;;;;;4398888;32;20121;-62
2023/12/12 10:57:49;;;;;;;0.90;0.50;;;8.00;99.90;;;;;;4396716;32;20073;-64
2023/12/12 11:00:16;;;;;;;0.45;0.45;;;7.90;99.90;;;;;;4386850;32;20116;-64
2023/12/12 11:02:43;;;;;;;0.82;0.82;;;7.90;99.90;;;;;;4381466;32;20106;-65
2023/12/12 11:05:11;;;;;;;0.82;0.73;;;7.90;99.90;;;;;;4390609;32;20293;-64
2023/12/12 11:07:38;;;;;;;0.35;0.35;;;8.00;99.90;;;;;;4377217;32;20144;-64
2023/12/12 11:10:08;;;;;;;0.40;0.40;;;8.10;99.90;;;;;;4396420;32;20184;-64
2023/12/12 11:12:36;;;;;;;0.30;0.30;;;8.30;99.90;;;;;;4398605;32;20078;-64
2023/12/12 11:15:04;;;;;;;0.28;0.28;;;8.40;99.90;;;;;;4384733;32;20101;-64
2023/12/12 11:17:30;;;;;;;0.60;0.55;;;8.50;99.90;;;;;;4377530;32;20114;-65
2023/12/12 11:19:56;;;;;;;0.60;0.60;;;8.60;99.90;;;;;;4391248;32;20792;-63
2023/12/12 11:22:39;;;;;;;4.47;0.80;;;8.70;99.90;;;;;;4395876;32;20081;-62
2023/12/12 11:25:08;;;;;;;1.60;1.00;;;8.80;99.90;;;;;;4383880;32;20077;-63
2023/12/12 11:27:38;;;;;;;5.15;1.08;;;8.80;99.90;;;;;;4387476;32;20490;-63
2023/12/12 11:30:05;;;;;;;0.40;0.40;;;8.60;99.90;;;;;;4397852;32;20157;-62
2023/12/12 11:32:33;;;;;;;0.98;0.93;;;8.50;99.90;;;;;;4387836;32;20196;-63
2023/12/12 11:34:59;;;;;;;0.40;0.40;;;8.40;99.90;;;;;;4385967;32;20097;-62
2023/12/12 11:37:41;;;;;;;0.30;0.30;;;8.40;99.90;;;;;;4392746;32;20212;-62
2023/12/12 11:40:09;;;;;;;0.30;0.30;;;8.30;99.90;;;;;;4388548;32;20101;-63
2023/12/12 11:42:35;;;;;;;2.78;1.05;;;8.30;99.90;;;;;;4385413;32;20441;-64
2023/12/12 11:45:01;;;;;;;0.30;0.30;;;8.30;99.90;;;;;;4405034;32;20557;-62
2023/12/12 11:47:32;;;;;;;2.55;0.68;;;8.30;99.90;;;;;;4404057;32;20205;-63
2023/12/12 11:50:29;;;;;;;0.25;0.25;;;8.30;99.90;;;;;;4402358;32;133305;-64
2023/12/12 11:52:56;;;;;;;0.30;0.30;;;8.50;99.90;;;;;;4390125;32;20172;-63
2023/12/12 11:55:28;;;;;;;1.20;1.08;;;8.90;99.90;;;;;;4408738;32;20588;-64
2023/12/12 11:57:59;;;;;;;0.30;0.30;;;9.30;99.90;;;;;;4371007;32;20236;-64
2023/12/12 12:00:24;;;;;;;6.20;0.60;;;9.70;99.90;;;;;;4389617;32;20077;-63
2023/12/12 12:02:50;;;;;;;0.40;0.40;;;9.90;99.90;;;;;;4413609;32;20069;-65
2023/12/12 12:05:15;;;;;;;0.80;0.40;;;10.10;99.90;;;;;;4433073;32;20077;-63
2023/12/12 12:07:41;;;;;;;1.55;0.68;;;10.10;99.90;;;;;;4419748;32;20109;-64
2023/12/12 12:10:08;;;;;;;0.70;0.70;;;10.20;99.90;;;;;;4406425;27;20101;-74
2023/12/12 12:12:34;;;;;;;4.97;0.93;;;10.30;99.90;;;;;;4379205;32;20648;-76
2023/12/12 12:15:03;;;;;;;0.30;0.30;;;10.70;99.90;;;;;;4371709;32;20069;-74
2023/12/12 12:17:37;;;;;;;3.72;1.55;;;10.90;99.90;;;;;;4378736;32;20601;-75
2023/12/12 12:20:03;;;;;;;0.40;0.40;;;10.80;99.90;;;;;;4378978;32;20207;-74
2023/12/12 12:22:29;;;;;;;0.55;0.55;;;10.80;99.90;;;;;;4379909;32;20663;-74
2023/12/12 12:24:55;;;;;;;0.45;0.45;;;10.60;99.90;;;;;;4383365;32;20090;-76
2023/12/12 12:27:21;;;;;;;0.32;0.32;;;10.70;99.90;;;;;;4377172;32;20234;-73
2023/12/12 12:30:06;;;;;;;1.12;0.60;;;10.50;99.90;;;;;;4373427;32;20082;-76
2023/12/12 12:32:32;;;;;;;0.98;0.95;;;10.90;99.90;;;;;;4377343;32;20561;-75
2023/12/12 12:35:13;;;;;;;0.40;0.40;;;11.10;99.90;;;;;;4391575;32;20274;-75
2023/12/12 12:37:40;;;;;;;;;;;11.20;99.90;;;;;;4388860;32;20621;-75
2023/12/12 12:40:10;;;;;;;0.52;0.50;;;10.90;99.90;;;;;;4389559;32;21202;-77
2023/12/12 12:42:37;;;;;;;0.30;0.30;;;10.90;99.90;;;;;;4379032;32;20754;-75
2023/12/12 12:45:06;;;;;;;0.37;0.37;;;10.60;99.90;;;;;;4381114;32;20220;-76
2023/12/12 12:47:32;;;;;;;0.52;0.47;;;10.70;99.90;;;;;;4387110;32;20375;-75
2023/12/12 12:49:59;;;;;;;0.40;0.40;;;10.90;99.90;;;;;;4388456;32;20618;-76
2023/12/12 12:52:25;;;;;;;0.50;0.50;;;11.00;99.90;;;;;;4393439;32;20162;-74
2023/12/12 12:54:50;;;;;;;0.30;0.30;;;11.20;99.90;;;;;;4395405;32;20573;-73
2023/12/12 12:57:16;;;;;;;0.40;0.40;;;11.40;99.90;;;;;;4393624;32;20089;-73